createdAt,value
2018-03-22T00:01:32.438Z,31.50
2018-03-22T00:04:01.229Z,26.73
2018-03-22T00:06:29.919Z,28.53
2018-03-22T00:08:58.605Z,29.63
2018-03-22T00:11:27.285Z,24.27
2018-03-22T00:13:55.871Z,24.17
2018-03-22T00:16:24.553Z,25.03
2018-03-22T00:18:53.284Z,28.67
2018-03-22T00:21:22.748Z,26.00
2018-03-22T00:23:51.422Z,26.53
2018-03-22T00:26:20.218Z,26.00
2018-03-22T00:28:48.905Z,26.87
2018-03-22T00:31:17.699Z,23.40
2018-03-22T00:33:46.443Z,21.90
2018-03-22T00:36:15.170Z,23.57
2018-03-22T00:38:43.904Z,23.07
2018-03-22T00:41:12.897Z,22.87
2018-03-22T00:43:41.458Z,23.50
2018-03-22T00:46:10.158Z,20.43
2018-03-22T00:48:39.673Z,23.63
2018-03-22T00:51:10.147Z,30.17
2018-03-22T00:53:38.834Z,26.93
2018-03-22T00:56:07.827Z,28.17
2018-03-22T00:58:36.473Z,27.60
2018-03-22T01:01:05.198Z,26.17
2018-03-22T01:03:34.184Z,25.67
2018-03-22T01:06:02.877Z,21.50
2018-03-22T01:08:31.465Z,22.93
2018-03-22T01:11:00.248Z,23.03
2018-03-22T01:13:28.934Z,23.77
2018-03-22T01:15:57.529Z,19.50
2018-03-22T01:18:26.265Z,21.43
2018-03-22T01:20:54.992Z,25.07
2018-03-22T01:23:23.626Z,22.67
2018-03-22T01:25:53.219Z,22.87
2018-03-22T01:28:22.738Z,24.77
2018-03-22T01:30:52.156Z,26.23
2018-03-22T01:33:21.048Z,24.23
2018-03-22T01:35:49.674Z,24.57
2018-03-22T01:38:18.251Z,26.53
2018-03-22T01:40:46.998Z,27.10
2018-03-22T01:43:15.734Z,26.10
2018-03-22T01:45:44.411Z,25.17
2018-03-22T01:48:13.204Z,29.70
2018-03-22T01:50:41.891Z,26.50
2018-03-22T01:53:13.892Z,30.17
2018-03-22T01:55:43.610Z,28.70
2018-03-22T01:58:12.300Z,33.10
2018-03-22T02:00:40.936Z,29.67
2018-03-22T02:03:09.716Z,28.70
2018-03-22T02:05:38.360Z,28.97
2018-03-22T02:08:07.089Z,31.03
2018-03-22T02:10:36.512Z,30.10
2018-03-22T02:13:05.282Z,27.17
2018-03-22T02:15:34.025Z,32.27
2018-03-22T02:18:02.753Z,33.27
2018-03-22T02:20:31.549Z,27.60
2018-03-22T02:23:00.228Z,31.53
2018-03-22T02:25:29.228Z,28.60
2018-03-22T02:27:57.913Z,26.73
2018-03-22T02:30:26.495Z,25.97
2018-03-22T02:32:55.573Z,25.07
2018-03-22T02:35:24.279Z,27.53
2018-03-22T02:37:52.965Z,25.60
2018-03-22T02:40:22.007Z,24.90
2018-03-22T02:42:50.793Z,28.03
2018-03-22T02:45:20.249Z,27.87
2018-03-22T02:47:49.186Z,27.10
2018-03-22T02:50:18.649Z,29.03
2018-03-22T02:52:47.330Z,24.97
2018-03-22T02:55:16.061Z,26.13
2018-03-22T02:57:45.523Z,23.13
2018-03-22T03:00:14.296Z,26.90
2018-03-22T03:02:43.301Z,23.07
2018-03-22T03:05:11.990Z,23.07
2018-03-22T03:07:40.723Z,23.27
2018-03-22T03:10:09.456Z,21.77
2018-03-22T03:12:38.142Z,24.07
2018-03-22T03:15:06.779Z,24.37
2018-03-22T03:17:36.595Z,23.67
2018-03-22T03:20:05.288Z,22.90
2018-03-22T03:22:34.031Z,21.40
2018-03-22T03:25:03.523Z,26.50
2018-03-22T03:27:32.210Z,24.50
2018-03-22T03:30:00.856Z,19.97
2018-03-22T03:32:29.779Z,24.97
2018-03-22T03:34:58.369Z,26.77
2018-03-22T03:37:27.113Z,23.37
2018-03-22T03:39:56.106Z,31.37
2018-03-22T03:42:24.830Z,223.77
2018-03-22T03:44:53.515Z,219.77
2018-03-22T03:47:22.409Z,76.27
2018-03-22T03:49:50.962Z,77.70
2018-03-22T03:52:19.525Z,35.87
2018-03-22T03:54:48.133Z,27.53
2018-03-22T03:57:16.689Z,24.83
2018-03-22T03:59:46.014Z,22.53
2018-03-22T04:02:14.772Z,27.43
2018-03-22T04:04:44.102Z,273.63
2018-03-22T04:07:12.662Z,329.10
2018-03-22T04:09:42.125Z,29.13
2018-03-22T04:12:10.689Z,23.67
2018-03-22T04:14:39.253Z,20.27
2018-03-22T04:17:07.994Z,22.30
2018-03-22T04:19:36.641Z,19.70
2018-03-22T04:22:05.211Z,23.43
2018-03-22T04:24:33.828Z,22.47
2018-03-22T04:27:02.411Z,28.57
2018-03-22T04:29:30.985Z,33.13
2018-03-22T04:31:59.608Z,31.33
2018-03-22T04:34:28.945Z,23.27
2018-03-22T04:36:57.522Z,15.73
2018-03-22T04:39:26.253Z,15.60
2018-03-22T04:41:54.824Z,18.93
2018-03-22T04:44:24.174Z,17.33
2018-03-22T04:46:53.638Z,20.77
2018-03-22T04:49:22.216Z,22.73
2018-03-22T04:51:50.776Z,24.87
2018-03-22T04:54:19.592Z,21.17
2018-03-22T04:56:48.157Z,20.90
2018-03-22T04:59:16.724Z,19.10
2018-03-22T05:01:45.406Z,18.90
2018-03-22T05:04:13.978Z,18.50
2018-03-22T05:06:43.301Z,20.30
2018-03-22T05:09:11.922Z,22.63
2018-03-22T05:11:41.241Z,19.77
2018-03-22T05:14:09.797Z,23.13
2018-03-22T05:16:38.405Z,21.57
2018-03-22T05:19:06.958Z,24.00
2018-03-22T05:21:35.509Z,28.10
2018-03-22T05:24:04.150Z,21.43
2018-03-22T05:26:32.714Z,26.13
2018-03-22T05:29:01.282Z,28.30
2018-03-22T05:31:30.838Z,36.10
2018-03-22T05:33:59.398Z,52.17
2018-03-22T05:36:28.661Z,54.13
2018-03-22T05:38:58.149Z,46.40
2018-03-22T05:41:26.753Z,36.43
2018-03-22T05:43:56.082Z,31.23
2018-03-22T05:46:24.690Z,23.10
2018-03-22T05:48:53.279Z,26.73
2018-03-22T05:51:21.838Z,34.33
2018-03-22T05:53:50.459Z,27.47
2018-03-22T05:56:19.032Z,30.17
2018-03-22T05:58:47.615Z,63.70
2018-03-22T06:01:16.488Z,82.43
2018-03-22T06:03:45.051Z,73.93
2018-03-22T06:06:13.623Z,51.87
2018-03-22T06:08:42.233Z,22.43
2018-03-22T06:11:10.798Z,33.33
2018-03-22T06:13:39.362Z,33.83
2018-03-22T06:16:08.897Z,20.83
2018-03-22T06:18:37.477Z,33.93
2018-03-22T06:21:06.048Z,35.43
2018-03-22T06:23:34.839Z,32.53
2018-03-22T06:26:03.406Z,30.80
2018-03-22T06:28:32.728Z,35.47
2018-03-22T06:31:01.562Z,37.47
2018-03-22T06:33:30.139Z,38.33
2018-03-22T06:35:58.729Z,43.67
2018-03-22T06:38:27.707Z,45.47
2018-03-22T06:40:56.270Z,49.20
2018-03-22T06:43:24.832Z,37.43
2018-03-22T06:45:53.590Z,54.97
2018-03-22T06:48:22.161Z,48.37
2018-03-22T06:50:52.658Z,24.90
2018-03-22T06:53:21.269Z,23.77
2018-03-22T06:55:49.836Z,12.87
2018-03-22T06:58:18.400Z,14.77
2018-03-22T07:00:47.219Z,23.50
2018-03-22T07:03:15.781Z,22.80
2018-03-22T07:05:44.346Z,19.13
2018-03-22T07:08:12.962Z,13.93
2018-03-22T07:10:41.530Z,17.93
2018-03-22T07:13:10.094Z,16.83
2018-03-22T07:15:39.692Z,14.70
2018-03-22T07:18:09.029Z,14.37
2018-03-22T07:20:37.602Z,12.03
2018-03-22T07:23:06.222Z,22.13
2018-03-22T07:25:35.210Z,36.67
2018-03-22T07:28:03.773Z,37.67
2018-03-22T07:30:32.688Z,33.17
2018-03-22T07:33:01.277Z,27.90
2018-03-22T07:35:29.850Z,160.43
2018-03-22T07:37:58.756Z,24.73
2018-03-22T07:40:28.096Z,24.07
2018-03-22T07:43:02.207Z,20.73
2018-03-22T07:45:30.791Z,21.77
2018-03-22T07:47:59.371Z,18.97
2018-03-22T07:50:42.809Z,20.27
2018-03-22T07:53:12.149Z,22.43
2018-03-22T07:55:41.670Z,20.70
2018-03-22T07:58:10.426Z,21.90
2018-03-22T08:00:39.047Z,21.90
2018-03-22T08:03:16.753Z,18.63
2018-03-22T08:05:46.279Z,18.07
2018-03-22T08:08:16.726Z,15.80
2018-03-22T08:10:46.957Z,19.00
2018-03-22T08:13:15.534Z,16.50
2018-03-22T08:15:44.130Z,16.43
2018-03-22T08:18:12.761Z,11.93
2018-03-22T08:20:41.481Z,15.47
2018-03-22T08:23:10.848Z,11.77
2018-03-22T08:25:39.492Z,16.60
2018-03-22T08:28:08.069Z,14.53
2018-03-22T08:30:36.689Z,9.40
2018-03-22T08:33:05.591Z,9.87
2018-03-22T08:35:34.173Z,11.87
2018-03-22T08:38:02.761Z,17.20
2018-03-22T08:40:31.498Z,17.13
2018-03-22T08:43:00.070Z,10.67
2018-03-22T08:45:28.721Z,11.90
2018-03-22T08:47:57.355Z,15.00
2018-03-22T08:50:25.930Z,11.30
2018-03-22T08:52:54.505Z,8.40
2018-03-22T08:55:24.069Z,14.13
2018-03-22T08:57:52.647Z,10.73
2018-03-22T09:00:21.295Z,13.20
2018-03-22T09:02:49.924Z,10.03
2018-03-22T09:05:18.499Z,7.77
2018-03-22T09:07:47.061Z,8.70
2018-03-22T09:10:15.838Z,9.77
2018-03-22T09:12:44.405Z,8.93
2018-03-22T09:15:12.984Z,13.40
2018-03-22T09:17:42.505Z,12.43
2018-03-22T09:20:11.090Z,18.40
2018-03-22T09:22:39.703Z,21.23
2018-03-22T09:25:08.331Z,19.80
2018-03-22T09:27:37.676Z,18.30
2018-03-22T09:30:06.255Z,19.03
2018-03-22T09:32:35.077Z,16.90
2018-03-22T09:35:03.657Z,18.07
2018-03-22T09:37:32.252Z,16.20
2018-03-22T09:40:00.884Z,11.00
2018-03-22T09:42:29.474Z,13.17
2018-03-22T09:44:58.056Z,12.73
2018-03-22T09:47:26.667Z,13.87
2018-03-22T09:49:55.240Z,27.30
2018-03-22T09:52:23.817Z,16.87
2018-03-22T09:54:52.631Z,15.63
2018-03-22T09:57:21.227Z,10.60
2018-03-22T09:59:49.794Z,13.10
2018-03-22T10:02:18.417Z,11.30
2018-03-22T10:04:47.745Z,18.13
2018-03-22T10:07:16.318Z,35.10
2018-03-22T10:09:44.932Z,49.00
2018-03-22T10:12:13.509Z,32.77
2018-03-22T10:14:42.084Z,19.00
2018-03-22T10:17:10.713Z,24.80
2018-03-22T10:19:39.295Z,33.37
2018-03-22T10:22:07.868Z,16.67
2018-03-22T10:24:36.657Z,14.43
2018-03-22T10:27:05.265Z,13.33
2018-03-22T10:29:34.603Z,13.43
2018-03-22T10:32:03.374Z,8.60
2018-03-22T10:34:32.709Z,12.10
2018-03-22T10:37:01.287Z,15.33
2018-03-22T10:39:29.905Z,23.90
2018-03-22T10:41:58.510Z,30.37
2018-03-22T10:44:27.858Z,17.90
2018-03-22T10:46:56.469Z,20.50
2018-03-22T10:49:25.069Z,22.83
2018-03-22T10:51:53.657Z,24.10
2018-03-22T10:54:23.102Z,20.40
2018-03-22T10:56:51.681Z,32.57
2018-03-22T10:59:20.262Z,35.80
2018-03-22T11:01:54.346Z,33.10
2018-03-22T11:04:23.695Z,39.07
2018-03-22T11:06:52.288Z,18.47
2018-03-22T11:09:20.979Z,23.00
2018-03-22T11:11:49.554Z,21.27
2018-03-22T11:14:18.154Z,23.80
2018-03-22T11:16:46.921Z,16.47
2018-03-22T11:19:15.516Z,19.70
2018-03-22T11:21:44.117Z,21.50
2018-03-22T11:24:12.899Z,15.93
2018-03-22T11:26:41.480Z,24.80
2018-03-22T11:29:10.067Z,23.07
2018-03-22T11:31:38.700Z,25.23
2018-03-22T11:34:07.276Z,19.00
2018-03-22T11:36:36.621Z,19.13
2018-03-22T11:39:05.445Z,19.67
2018-03-22T11:41:34.784Z,22.43
2018-03-22T11:44:03.363Z,27.47
2018-03-22T11:46:31.992Z,22.23
2018-03-22T11:49:00.588Z,21.63
2018-03-22T11:51:29.170Z,23.17
2018-03-22T11:53:57.800Z,21.93
2018-03-22T11:56:26.402Z,27.23
2018-03-22T11:58:54.980Z,22.13
2018-03-22T12:01:23.799Z,23.73
2018-03-22T12:03:52.383Z,18.63
2018-03-22T12:06:20.973Z,18.30
2018-03-22T12:08:49.594Z,21.70
2018-03-22T12:11:18.953Z,20.57
2018-03-22T12:13:47.535Z,53.23
2018-03-22T12:16:17.056Z,24.70
2018-03-22T12:18:45.633Z,18.63
2018-03-22T12:21:14.211Z,23.60
2018-03-22T12:23:43.170Z,20.07
2018-03-22T12:26:11.742Z,25.47
2018-03-22T12:28:40.318Z,21.97
2018-03-22T12:31:08.952Z,140.43
2018-03-22T12:33:37.537Z,68.37
2018-03-22T12:36:06.122Z,30.50
2018-03-22T12:38:35.007Z,29.50
2018-03-22T12:41:03.601Z,27.60
2018-03-22T12:43:32.214Z,22.80
2018-03-22T12:46:00.935Z,20.57
2018-03-22T12:48:29.513Z,22.63
2018-03-22T12:50:58.090Z,21.57
2018-03-22T12:53:26.724Z,22.53
2018-03-22T12:55:55.313Z,18.67
2018-03-22T12:58:23.897Z,16.87
2018-03-22T13:00:52.774Z,19.93
2018-03-22T13:03:21.360Z,18.70
2018-03-22T13:05:49.947Z,26.03
2018-03-22T13:08:18.578Z,31.40
2018-03-22T13:10:47.170Z,28.43
2018-03-22T13:13:15.755Z,39.50
2018-03-22T13:15:44.381Z,973.50
2018-03-22T13:18:12.977Z,1312.37
2018-03-22T13:20:41.561Z,1583.37
2018-03-22T13:23:10.535Z,615.17
2018-03-22T13:25:39.122Z,68.37
2018-03-22T13:28:08.473Z,131.50
2018-03-22T13:30:37.103Z,46.17
2018-03-22T13:33:05.688Z,29.17
2018-03-22T13:35:34.265Z,16.00
2018-03-22T13:38:02.913Z,29.27
2018-03-22T13:40:31.507Z,19.57
2018-03-22T13:43:00.085Z,18.73
2018-03-22T13:45:28.801Z,13.83
2018-03-22T13:47:57.380Z,14.20
2018-03-22T13:50:25.957Z,19.10
2018-03-22T13:52:54.572Z,13.47
2018-03-22T13:55:23.173Z,18.67
2018-03-22T13:57:52.509Z,23.87
2018-03-22T14:00:21.384Z,16.97
2018-03-22T14:02:50.737Z,20.00
2018-03-22T14:05:19.318Z,22.83
2018-03-22T14:07:48.306Z,22.77
2018-03-22T14:10:16.889Z,16.90
2018-03-22T14:12:45.478Z,18.70
2018-03-22T14:15:14.474Z,21.43
2018-03-22T14:17:43.054Z,43.00
2018-03-22T14:20:11.632Z,39.50
2018-03-22T14:22:40.349Z,37.60
2018-03-22T14:25:08.917Z,35.97
2018-03-22T14:27:38.263Z,25.80
2018-03-22T14:30:06.924Z,23.60
2018-03-22T14:32:36.273Z,23.43
2018-03-22T14:35:04.881Z,20.97
2018-03-22T14:37:33.605Z,18.63
2018-03-22T14:40:02.960Z,17.17
2018-03-22T14:42:31.547Z,18.47
2018-03-22T14:45:00.297Z,16.43
2018-03-22T14:47:28.878Z,13.17
2018-03-22T14:49:57.453Z,37.33
2018-03-22T14:52:26.121Z,24.57
2018-03-22T14:54:55.474Z,52.87
2018-03-22T14:57:24.066Z,30.20
2018-03-22T14:59:52.859Z,15.30
2018-03-22T15:02:21.457Z,13.43
2018-03-22T15:04:50.275Z,15.70
2018-03-22T15:07:19.842Z,15.53
2018-03-22T15:09:48.446Z,11.63
2018-03-22T15:12:17.037Z,15.23
2018-03-22T15:14:47.159Z,17.20
2018-03-22T15:17:16.525Z,13.50
2018-03-22T15:19:45.110Z,11.87
2018-03-22T15:22:13.759Z,13.10
2018-03-22T15:24:42.343Z,14.10
2018-03-22T15:27:11.721Z,11.97
2018-03-22T15:29:41.118Z,12.13
2018-03-22T15:32:10.488Z,14.13
2018-03-22T15:34:39.072Z,14.63
2018-03-22T15:37:07.858Z,14.73
2018-03-22T15:39:36.428Z,19.13
2018-03-22T15:42:05.021Z,18.07
2018-03-22T15:44:33.733Z,29.33
2018-03-22T15:47:02.319Z,18.37
2018-03-22T15:49:30.892Z,14.93
2018-03-22T15:51:59.779Z,12.80
2018-03-22T15:54:28.365Z,12.77
2018-03-22T15:57:03.628Z,12.30
2018-03-22T15:59:32.970Z,14.57
2018-03-22T16:02:01.540Z,11.77
2018-03-22T16:04:30.376Z,18.00
2018-03-22T16:06:58.956Z,19.83
2018-03-22T16:09:27.537Z,13.00
2018-03-22T16:11:56.156Z,18.83
2018-03-22T16:14:25.498Z,23.00
2018-03-22T16:16:54.069Z,21.00
2018-03-22T16:19:22.878Z,13.43
2018-03-22T16:21:51.466Z,19.00
2018-03-22T16:24:20.042Z,21.80
2018-03-22T16:26:49.026Z,17.33
2018-03-22T16:29:17.605Z,20.40
2018-03-22T16:31:46.179Z,11.03
2018-03-22T16:34:14.802Z,11.77
2018-03-22T16:36:44.163Z,12.43
2018-03-22T16:39:12.741Z,15.37
2018-03-22T16:41:43.822Z,15.87
2018-03-22T16:44:13.174Z,18.10
2018-03-22T16:46:41.750Z,12.03
2018-03-22T16:49:10.381Z,18.80
2018-03-22T16:51:38.977Z,15.87
2018-03-22T16:54:08.322Z,75.97
2018-03-22T16:56:36.932Z,21.37
2018-03-22T16:59:05.532Z,44.57
2018-03-22T17:01:34.106Z,16.77
2018-03-22T17:04:02.814Z,14.83
2018-03-22T17:06:31.413Z,15.93
2018-03-22T17:08:59.990Z,12.60
2018-03-22T17:11:28.778Z,16.77
2018-03-22T17:13:57.360Z,11.30
2018-03-22T17:16:25.947Z,32.07
2018-03-22T17:18:54.737Z,76.67
2018-03-22T17:21:23.329Z,45.77
2018-03-22T17:23:51.914Z,46.70
2018-03-22T17:26:20.542Z,198.10
2018-03-22T17:28:49.126Z,65.83
2018-03-22T17:31:17.701Z,52.30
2018-03-22T17:33:46.546Z,24.77
2018-03-22T17:36:15.149Z,41.03
2018-03-22T17:38:43.723Z,13.63
2018-03-22T17:41:12.605Z,40.63
2018-03-22T17:43:41.195Z,16.50
2018-03-22T17:46:09.771Z,15.17
2018-03-22T17:48:38.417Z,15.73
2018-03-22T17:51:06.997Z,15.57
2018-03-22T17:53:35.561Z,15.20
2018-03-22T17:56:05.018Z,15.50
2018-03-22T17:58:33.610Z,15.50
2018-03-22T18:01:02.196Z,16.80
2018-03-22T18:03:30.981Z,16.27
2018-03-22T18:05:59.585Z,10.37
2018-03-22T18:08:28.947Z,12.17
2018-03-22T18:10:57.753Z,12.63
2018-03-22T18:13:26.365Z,17.30
2018-03-22T18:15:55.719Z,16.17
2018-03-22T18:18:24.529Z,13.77
2018-03-22T18:20:53.105Z,12.63
2018-03-22T18:23:21.678Z,16.63
2018-03-22T18:25:50.482Z,13.83
2018-03-22T18:28:19.066Z,17.60
2018-03-22T18:30:47.642Z,17.23
2018-03-22T18:33:16.440Z,16.83
2018-03-22T18:35:45.026Z,18.73
2018-03-22T18:38:14.363Z,14.03
2018-03-22T18:40:43.800Z,13.97
2018-03-22T18:43:12.421Z,16.67
2018-03-22T18:45:40.994Z,17.30
2018-03-22T18:48:09.779Z,17.57
2018-03-22T18:50:38.363Z,14.43
2018-03-22T18:53:06.941Z,16.77
2018-03-22T18:55:35.948Z,14.97
2018-03-22T18:58:05.296Z,18.80
2018-03-22T19:00:33.897Z,11.37
2018-03-22T19:03:03.390Z,19.50
2018-03-22T19:05:32.735Z,15.50
2018-03-22T19:08:01.310Z,16.93
2018-03-22T19:10:30.041Z,17.37
2018-03-22T19:12:58.614Z,16.73
2018-03-22T19:15:27.200Z,21.03
2018-03-22T19:17:56.098Z,22.77
2018-03-22T19:20:24.678Z,20.03
2018-03-22T19:22:53.262Z,21.83
2018-03-22T19:25:22.017Z,15.67
2018-03-22T19:27:50.582Z,15.00
2018-03-22T19:30:19.935Z,18.23
2018-03-22T19:32:48.572Z,16.97
2018-03-22T19:35:17.924Z,17.60
2018-03-22T19:37:46.497Z,15.47
2018-03-22T19:40:15.207Z,13.30
2018-03-22T19:42:43.805Z,16.60
2018-03-22T19:45:13.144Z,14.07
2018-03-22T19:47:41.766Z,14.77
2018-03-22T19:50:11.102Z,11.90
2018-03-22T19:52:39.668Z,13.40
2018-03-22T19:55:08.293Z,16.33
2018-03-22T19:57:36.866Z,13.73
2018-03-22T20:00:05.506Z,13.43
2018-03-22T20:02:34.977Z,14.13
2018-03-22T20:05:03.582Z,13.37
2018-03-22T20:07:32.913Z,15.57
2018-03-22T20:10:01.638Z,13.67
2018-03-22T20:12:30.217Z,12.37
2018-03-22T20:14:58.803Z,12.20
2018-03-22T20:17:27.509Z,12.80
2018-03-22T20:19:56.085Z,15.10
2018-03-22T20:22:24.668Z,14.27
2018-03-22T20:24:53.646Z,12.73
2018-03-22T20:27:22.229Z,14.03
2018-03-22T20:29:50.800Z,9.43
2018-03-22T20:32:19.422Z,9.20
2018-03-22T20:34:48.765Z,13.73
2018-03-22T20:37:17.342Z,17.17
2018-03-22T20:39:46.277Z,9.27
2018-03-22T20:42:14.858Z,14.10
2018-03-22T20:44:43.446Z,16.27
2018-03-22T20:47:12.178Z,15.03
2018-03-22T20:49:40.762Z,13.53
2018-03-22T20:52:10.092Z,10.50
2018-03-22T20:54:38.729Z,13.80
2018-03-22T20:57:08.049Z,13.17
2018-03-22T20:59:36.607Z,12.57
2018-03-22T21:02:05.311Z,14.97
2018-03-22T21:04:34.621Z,8.97
2018-03-22T21:07:03.971Z,9.90
2018-03-22T21:09:32.578Z,9.73
2018-03-22T21:12:01.134Z,9.83
2018-03-22T21:14:29.722Z,11.23
2018-03-22T21:16:58.428Z,10.77
2018-03-22T21:19:26.997Z,10.87
2018-03-22T21:21:55.573Z,12.60
2018-03-22T21:24:24.186Z,12.47
2018-03-22T21:26:53.518Z,8.90
2018-03-22T21:29:22.085Z,13.13
2018-03-22T21:31:51.480Z,8.83
2018-03-22T21:34:20.845Z,13.50
2018-03-22T21:36:49.430Z,13.03
2018-03-22T21:39:18.217Z,11.67
2018-03-22T21:42:04.351Z,12.53
2018-03-22T21:44:33.736Z,12.93
2018-03-22T21:50:11.889Z,13.27
2018-03-22T21:52:47.276Z,11.60
2018-03-22T21:55:16.222Z,12.50
2018-03-22T21:57:45.557Z,17.23
2018-03-22T22:00:14.135Z,13.57
2018-03-22T22:02:42.848Z,12.97
2018-03-22T22:05:11.440Z,13.77
2018-03-22T22:07:40.019Z,7.00
2018-03-22T22:10:09.007Z,11.67
2018-03-22T22:12:37.610Z,12.77
2018-03-22T22:15:06.217Z,11.50
2018-03-22T22:17:35.608Z,9.50
2018-03-22T22:20:04.991Z,11.50
2018-03-22T22:22:33.560Z,9.97
2018-03-22T22:25:03.170Z,11.43
2018-03-22T22:27:31.734Z,9.70
2018-03-22T22:30:00.310Z,11.00
2018-03-22T22:32:29.206Z,9.90
2018-03-22T22:34:57.778Z,11.77
2018-03-22T22:37:26.341Z,12.13
2018-03-22T22:39:55.893Z,9.30
2018-03-22T22:42:24.458Z,12.30
2018-03-22T22:44:53.050Z,12.27
2018-03-22T22:47:22.055Z,9.37
2018-03-22T22:49:50.632Z,9.63
2018-03-22T22:52:19.226Z,8.90
2018-03-22T22:54:48.008Z,9.87
2018-03-22T22:57:16.579Z,11.90
2018-03-22T22:59:45.143Z,7.57
2018-03-22T23:02:13.815Z,7.73
2018-03-22T23:04:43.159Z,9.23
2018-03-22T23:07:11.731Z,8.47
2018-03-22T23:09:40.544Z,9.43
2018-03-22T23:12:09.116Z,7.53
2018-03-22T23:14:37.682Z,6.40
2018-03-22T23:17:06.303Z,7.47
2018-03-22T23:19:34.873Z,9.70
2018-03-22T23:22:04.212Z,6.80
2018-03-22T23:24:33.698Z,6.00
2018-03-22T23:27:02.265Z,6.63
2018-03-22T23:29:30.847Z,6.17
2018-03-22T23:31:59.550Z,6.37
2018-03-22T23:34:28.118Z,5.60
2018-03-22T23:36:56.686Z,8.33
2018-03-22T23:39:25.391Z,4.60
2018-03-22T23:41:53.977Z,7.23
2018-03-22T23:44:22.548Z,5.03
2018-03-22T23:46:51.157Z,5.23
2018-03-22T23:49:19.752Z,6.93
2018-03-22T23:51:49.088Z,5.77
2018-03-22T23:54:17.700Z,5.53
2018-03-22T23:56:46.264Z,6.13
2018-03-22T23:59:14.833Z,6.53
